createdAt,value
2017-09-23T00:00:18.520Z,96.79
2017-09-23T00:01:24.642Z,96.67
2017-09-23T00:02:31.641Z,97.36
2017-09-23T00:03:37.708Z,98.19
2017-09-23T00:04:45.798Z,98.88
2017-09-23T00:05:51.668Z,99.35
2017-09-23T00:06:57.748Z,100.00
2017-09-23T00:08:03.843Z,100.00
2017-09-23T00:09:09.992Z,99.87
2017-09-23T00:10:16.981Z,100.00
2017-09-23T00:11:23.078Z,100.00
2017-09-23T00:12:29.986Z,100.00
2017-09-23T00:13:36.187Z,100.00
2017-09-23T00:14:42.448Z,100.00
2017-09-23T00:15:49.087Z,100.00
2017-09-23T00:16:55.667Z,100.00
2017-09-23T00:18:02.409Z,100.00
2017-09-23T00:19:08.513Z,100.00
2017-09-23T00:20:14.616Z,100.00
2017-09-23T00:21:20.830Z,100.00
2017-09-23T00:22:26.914Z,100.00
2017-09-23T00:23:33.017Z,100.00
2017-09-23T00:24:39.121Z,100.00
2017-09-23T00:25:45.230Z,100.00
2017-09-23T00:26:51.345Z,100.00
2017-09-23T00:27:58.776Z,100.00
2017-09-23T00:29:05.414Z,100.00
2017-09-23T00:30:11.885Z,100.00
2017-09-23T00:31:18.939Z,100.00
2017-09-23T00:32:25.138Z,100.00
2017-09-23T00:33:31.634Z,100.00
2017-09-23T00:34:37.817Z,100.00
2017-09-23T00:35:44.502Z,100.00
2017-09-23T00:36:50.632Z,100.00
2017-09-23T00:37:56.722Z,100.00
2017-09-23T00:39:02.609Z,100.00
2017-09-23T00:40:08.477Z,100.00
2017-09-23T00:41:14.550Z,100.00
2017-09-23T00:42:20.098Z,100.00
2017-09-23T00:43:26.220Z,100.00
2017-09-23T00:44:32.325Z,100.00
2017-09-23T00:45:38.394Z,100.00
2017-09-23T00:46:44.501Z,100.00
2017-09-23T00:47:50.584Z,100.00
2017-09-23T00:48:56.779Z,100.00
2017-09-23T00:50:02.880Z,100.00
2017-09-23T00:51:08.287Z,99.96
2017-09-23T00:52:13.629Z,99.91
2017-09-23T00:53:19.023Z,100.00
2017-09-23T00:54:24.576Z,99.92
2017-09-23T00:55:30.323Z,100.00
2017-09-23T00:56:36.410Z,99.94
2017-09-23T00:57:42.653Z,100.00
2017-09-23T00:58:48.775Z,99.70
2017-09-23T00:59:54.953Z,99.36
2017-09-23T01:01:01.042Z,98.92
2017-09-23T01:02:09.107Z,99.01
2017-09-23T01:03:17.013Z,99.49
2017-09-23T01:04:23.092Z,99.76
2017-09-23T01:05:28.955Z,99.87
2017-09-23T01:06:34.455Z,100.00
2017-09-23T01:07:40.546Z,100.00
2017-09-23T01:08:46.664Z,100.00
2017-09-23T01:09:52.722Z,100.00
2017-09-23T01:10:58.422Z,99.78
2017-09-23T01:12:03.780Z,99.17
2017-09-23T01:13:11.378Z,100.00
2017-09-23T01:14:17.627Z,100.00
2017-09-23T01:15:23.332Z,100.00
2017-09-23T01:16:29.391Z,100.00
2017-09-23T01:17:35.447Z,100.00
2017-09-23T01:18:41.736Z,100.00
2017-09-23T01:19:47.487Z,100.00
2017-09-23T01:20:52.839Z,100.00
2017-09-23T01:21:58.230Z,100.00
2017-09-23T01:23:03.960Z,100.00
2017-09-23T01:24:09.351Z,100.00
2017-09-23T01:25:14.919Z,100.00
2017-09-23T01:26:20.431Z,100.00
2017-09-23T01:27:26.495Z,100.00
2017-09-23T01:28:32.396Z,100.00
2017-09-23T01:29:38.160Z,100.00
2017-09-23T01:30:43.717Z,100.00
2017-09-23T01:31:50.864Z,100.00
2017-09-23T01:32:57.146Z,100.00
2017-09-23T01:34:03.518Z,99.14
2017-09-23T01:35:09.597Z,99.83
2017-09-23T01:36:15.518Z,100.00
2017-09-23T01:37:21.605Z,100.00
2017-09-23T01:38:27.649Z,100.00
2017-09-23T01:39:33.712Z,100.00
2017-09-23T01:40:39.770Z,100.00
2017-09-23T01:41:45.872Z,100.00
2017-09-23T01:42:51.922Z,100.00
2017-09-23T01:43:58.686Z,100.00
2017-09-23T01:45:04.771Z,100.00
2017-09-23T01:46:10.848Z,100.00
2017-09-23T01:47:16.954Z,100.00
2017-09-23T01:48:23.135Z,100.00
2017-09-23T01:49:29.379Z,100.00
2017-09-23T01:50:35.455Z,100.00
2017-09-23T01:51:41.520Z,100.00
2017-09-23T01:52:47.600Z,100.00
2017-09-23T01:53:53.675Z,100.00
2017-09-23T01:54:59.747Z,100.00
2017-09-23T01:56:05.832Z,100.00
2017-09-23T01:57:11.955Z,100.00
2017-09-23T01:58:18.132Z,100.00
2017-09-23T01:59:24.003Z,99.98
2017-09-23T02:00:30.067Z,98.86
2017-09-23T02:01:35.950Z,98.83
2017-09-23T02:02:42.066Z,99.67
2017-09-23T02:03:47.946Z,100.00
2017-09-23T02:04:54.344Z,99.70
2017-09-23T02:06:00.722Z,99.51
2017-09-23T02:07:06.823Z,99.67
2017-09-23T02:08:12.958Z,100.00
2017-09-23T02:09:19.022Z,100.00
2017-09-23T02:10:25.193Z,100.00
2017-09-23T02:11:31.265Z,100.00
2017-09-23T02:12:37.332Z,100.00
2017-09-23T02:13:43.537Z,100.00
2017-09-23T02:14:49.603Z,100.00
2017-09-23T02:15:55.686Z,100.00
2017-09-23T02:17:01.792Z,100.00
2017-09-23T02:18:07.870Z,99.48
2017-09-23T02:19:13.944Z,98.75
2017-09-23T02:20:20.018Z,98.21
2017-09-23T02:21:26.167Z,98.75
2017-09-23T02:22:32.230Z,99.69
2017-09-23T02:23:38.310Z,100.00
2017-09-23T02:24:44.447Z,100.00
2017-09-23T02:25:50.709Z,100.00
2017-09-23T02:26:57.668Z,100.00
2017-09-23T02:28:03.841Z,100.00
2017-09-23T02:29:09.936Z,100.00
2017-09-23T02:30:16.062Z,100.00
2017-09-23T02:31:22.190Z,100.00
2017-09-23T02:32:28.063Z,100.00
2017-09-23T02:33:34.154Z,100.00
2017-09-23T02:34:40.282Z,100.00
2017-09-23T02:35:46.544Z,100.00
2017-09-23T02:36:52.806Z,100.00
2017-09-23T02:37:59.652Z,100.00
2017-09-23T02:39:05.003Z,100.00
2017-09-23T02:40:11.117Z,100.00
2017-09-23T02:41:17.203Z,100.00
2017-09-23T02:42:23.351Z,100.00
2017-09-23T02:43:29.825Z,100.00
2017-09-23T02:44:36.109Z,99.73
2017-09-23T02:45:42.286Z,99.06
2017-09-23T02:46:48.371Z,99.23
2017-09-23T02:47:54.176Z,100.00
2017-09-23T02:49:00.262Z,100.00
2017-09-23T02:50:05.970Z,100.00
2017-09-23T02:51:12.119Z,100.00
2017-09-23T02:52:18.199Z,100.00
2017-09-23T02:53:24.318Z,100.00
2017-09-23T02:54:30.400Z,100.00
2017-09-23T02:55:36.486Z,100.00
2017-09-23T02:56:42.418Z,100.00
2017-09-23T02:57:48.517Z,100.00
2017-09-23T02:58:54.621Z,100.00
2017-09-23T03:00:00.703Z,100.00
2017-09-23T03:01:06.579Z,100.00
2017-09-23T03:02:12.902Z,100.00
2017-09-23T03:03:19.072Z,100.00
2017-09-23T03:04:25.268Z,100.00
2017-09-23T03:05:31.372Z,100.00
2017-09-23T03:06:37.491Z,100.00
2017-09-23T03:07:43.599Z,100.00
2017-09-23T03:08:49.678Z,100.00
2017-09-23T03:09:55.765Z,100.00
2017-09-23T03:11:01.876Z,100.00
2017-09-23T03:12:07.968Z,100.00
2017-09-23T03:13:14.100Z,99.89
2017-09-23T03:14:20.183Z,98.94
2017-09-23T03:15:26.327Z,98.97
2017-09-23T03:16:32.216Z,98.89
2017-09-23T03:17:38.310Z,98.68
2017-09-23T03:18:44.488Z,99.25
2017-09-23T03:19:50.652Z,100.00
2017-09-23T03:20:56.840Z,100.00
2017-09-23T03:22:02.960Z,100.00
2017-09-23T03:23:09.071Z,100.00
2017-09-23T03:24:15.155Z,100.00
2017-09-23T03:25:21.253Z,100.00
2017-09-23T03:26:27.399Z,100.00
2017-09-23T03:27:33.543Z,100.00
2017-09-23T03:28:41.478Z,100.00
2017-09-23T03:29:49.957Z,100.00
2017-09-23T03:30:56.731Z,100.00
2017-09-23T03:32:04.735Z,100.00
2017-09-23T03:33:11.176Z,100.00
2017-09-23T03:34:17.396Z,100.00
2017-09-23T03:35:23.541Z,100.00
2017-09-23T03:36:29.607Z,100.00
2017-09-23T03:37:35.675Z,100.00
2017-09-23T03:38:41.565Z,100.00
2017-09-23T03:39:47.645Z,100.00
2017-09-23T03:40:53.747Z,100.00
2017-09-23T03:41:59.640Z,100.00
2017-09-23T03:43:05.531Z,100.00
2017-09-23T03:44:11.648Z,100.00
2017-09-23T03:45:17.756Z,100.00
2017-09-23T03:46:23.881Z,100.00
2017-09-23T03:47:29.958Z,100.00
2017-09-23T03:48:36.037Z,100.00
2017-09-23T03:49:41.944Z,100.00
2017-09-23T03:50:48.058Z,100.00
2017-09-23T03:51:54.201Z,100.00
2017-09-23T03:53:00.308Z,100.00
2017-09-23T03:54:06.391Z,100.00
2017-09-23T03:55:12.550Z,100.00
2017-09-23T03:56:18.671Z,100.00
2017-09-23T03:57:24.819Z,100.00
2017-09-23T03:58:30.903Z,99.33
2017-09-23T03:59:36.991Z,99.18
2017-09-23T04:00:43.067Z,99.56
2017-09-23T04:01:48.943Z,100.00
2017-09-23T04:02:55.077Z,100.00
2017-09-23T04:04:01.137Z,100.00
2017-09-23T04:05:07.324Z,100.00
2017-09-23T04:06:13.459Z,100.00
2017-09-23T04:07:19.618Z,100.00
2017-09-23T04:08:25.891Z,100.00
2017-09-23T04:09:31.995Z,100.00
2017-09-23T04:10:38.276Z,100.00
2017-09-23T04:11:44.384Z,100.00
2017-09-23T04:12:50.437Z,100.00
2017-09-23T04:13:56.522Z,100.00
2017-09-23T04:15:02.607Z,100.00
2017-09-23T04:16:08.727Z,100.00
2017-09-23T04:17:14.622Z,100.00
2017-09-23T04:18:20.754Z,100.00
2017-09-23T04:19:26.913Z,100.00
2017-09-23T04:20:32.991Z,100.00
2017-09-23T04:21:39.476Z,100.00
2017-09-23T04:22:45.551Z,100.00
2017-09-23T04:23:51.667Z,100.00
2017-09-23T04:24:57.743Z,100.00
2017-09-23T04:26:04.043Z,100.00
2017-09-23T04:27:10.138Z,99.74
2017-09-23T04:28:16.334Z,100.00
2017-09-23T04:29:22.544Z,100.00
2017-09-23T04:30:28.326Z,100.00
2017-09-23T04:31:34.599Z,100.00
2017-09-23T04:32:40.705Z,100.00
2017-09-23T04:33:46.808Z,100.00
2017-09-23T04:34:53.097Z,100.00
2017-09-23T04:35:59.167Z,100.00
2017-09-23T04:37:05.254Z,100.00
2017-09-23T04:38:11.370Z,100.00
2017-09-23T04:39:17.526Z,100.00
2017-09-23T04:40:23.687Z,100.00
2017-09-23T04:41:30.606Z,100.00
2017-09-23T04:42:36.738Z,100.00
2017-09-23T04:43:43.085Z,100.00
2017-09-23T04:44:49.183Z,100.00
2017-09-23T04:45:55.322Z,100.00
2017-09-23T04:47:01.486Z,100.00
2017-09-23T04:48:07.937Z,100.00
2017-09-23T04:49:14.584Z,100.00
2017-09-23T04:50:21.693Z,100.00
2017-09-23T04:51:31.186Z,99.58
2017-09-23T04:52:37.522Z,99.15
2017-09-23T04:53:43.603Z,99.05
2017-09-23T04:54:50.060Z,99.97
2017-09-23T04:55:56.391Z,100.00
2017-09-23T04:57:03.378Z,100.00
2017-09-23T04:58:09.661Z,100.00
2017-09-23T04:59:15.752Z,100.00
2017-09-23T05:00:21.860Z,100.00
2017-09-23T05:01:27.993Z,100.00
2017-09-23T05:02:34.072Z,100.00
2017-09-23T05:03:42.062Z,100.00
2017-09-23T05:04:48.161Z,100.00
2017-09-23T05:05:54.820Z,100.00
2017-09-23T05:07:00.949Z,100.00
2017-09-23T05:08:07.014Z,100.00
2017-09-23T05:09:13.106Z,100.00
2017-09-23T05:10:19.203Z,100.00
2017-09-23T05:11:25.289Z,100.00
2017-09-23T05:12:31.394Z,100.00
2017-09-23T05:13:37.473Z,100.00
2017-09-23T05:14:43.658Z,100.00
2017-09-23T05:15:49.748Z,100.00
2017-09-23T05:16:55.827Z,100.00
2017-09-23T05:18:01.922Z,100.00
2017-09-23T05:19:07.999Z,100.00
2017-09-23T05:20:14.080Z,100.00
2017-09-23T05:21:20.171Z,100.00
2017-09-23T05:22:26.310Z,100.00
2017-09-23T05:23:32.447Z,100.00
2017-09-23T05:24:38.561Z,100.00
2017-09-23T05:25:44.665Z,100.00
2017-09-23T05:26:50.551Z,100.00
2017-09-23T05:27:56.672Z,99.17
2017-09-23T05:29:02.819Z,98.37
2017-09-23T05:30:08.918Z,98.27
2017-09-23T05:31:15.023Z,98.12
2017-09-23T05:32:21.157Z,98.32
2017-09-23T05:33:27.240Z,98.20
2017-09-23T05:34:33.542Z,97.54
2017-09-23T05:35:39.630Z,97.10
2017-09-23T05:36:45.912Z,97.00
2017-09-23T05:37:52.056Z,96.91
2017-09-23T05:38:58.065Z,96.78
2017-09-23T05:40:04.187Z,96.29
2017-09-23T05:41:10.248Z,95.68
2017-09-23T05:42:16.350Z,95.39
2017-09-23T05:43:22.548Z,95.06
2017-09-23T05:44:28.763Z,96.06
2017-09-23T05:45:35.095Z,97.70
2017-09-23T05:46:41.171Z,98.71
2017-09-23T05:47:47.251Z,99.18
2017-09-23T05:48:53.400Z,99.57
2017-09-23T05:50:00.474Z,99.50
2017-09-23T05:51:07.026Z,98.93
2017-09-23T05:52:12.937Z,98.14
2017-09-23T05:53:19.124Z,96.58
2017-09-23T05:54:25.654Z,96.21
2017-09-23T05:55:31.842Z,96.57
2017-09-23T05:56:38.047Z,96.37
2017-09-23T05:57:44.666Z,96.27
2017-09-23T05:58:51.238Z,96.17
2017-09-23T05:59:57.318Z,96.80
2017-09-23T06:01:03.874Z,97.41
2017-09-23T06:02:09.964Z,98.98
2017-09-23T06:03:15.837Z,99.44
2017-09-23T06:04:21.979Z,99.23
2017-09-23T06:05:28.267Z,98.14
2017-09-23T06:06:34.194Z,97.23
2017-09-23T06:07:40.290Z,96.43
2017-09-23T06:08:46.370Z,96.11
2017-09-23T06:09:52.559Z,97.09
2017-09-23T06:10:58.813Z,96.59
2017-09-23T06:12:04.907Z,95.64
2017-09-23T06:13:10.990Z,95.61
2017-09-23T06:14:17.086Z,95.51
2017-09-23T06:15:23.151Z,94.92
2017-09-23T06:16:29.202Z,94.96
2017-09-23T06:17:35.343Z,95.26
2017-09-23T06:18:41.418Z,94.25
2017-09-23T06:19:47.491Z,93.45
2017-09-23T06:20:54.435Z,93.17
2017-09-23T06:22:00.567Z,93.20
2017-09-23T06:23:06.660Z,93.27
2017-09-23T06:24:12.755Z,93.36
2017-09-23T06:25:18.910Z,92.17
2017-09-23T06:26:25.567Z,92.06
2017-09-23T06:27:31.962Z,91.85
2017-09-23T06:28:37.851Z,92.63
2017-09-23T06:29:44.481Z,93.07
2017-09-23T06:30:53.181Z,93.38
2017-09-23T06:32:00.494Z,92.64
2017-09-23T06:33:07.645Z,91.91
2017-09-23T06:34:14.280Z,92.18
2017-09-23T06:35:20.414Z,93.57
2017-09-23T06:36:26.582Z,92.53
2017-09-23T06:37:32.627Z,91.59
2017-09-23T06:38:39.915Z,91.18
2017-09-23T06:39:46.034Z,91.53
2017-09-23T06:40:52.107Z,91.63
2017-09-23T06:41:58.174Z,91.79
2017-09-23T06:43:04.237Z,91.44
2017-09-23T06:44:10.327Z,91.15
2017-09-23T06:45:16.398Z,91.24
2017-09-23T06:46:22.494Z,91.28
2017-09-23T06:47:30.227Z,90.45
2017-09-23T06:48:37.263Z,89.54
2017-09-23T06:49:44.201Z,89.68
2017-09-23T06:50:51.036Z,89.13
2017-09-23T06:51:58.145Z,88.46
2017-09-23T06:53:06.576Z,88.45
2017-09-23T06:54:13.317Z,88.48
2017-09-23T06:55:29.216Z,87.24
2017-09-23T06:56:54.153Z,86.19
2017-09-23T06:58:20.236Z,85.50
2017-09-23T06:59:28.045Z,85.28
2017-09-23T07:00:34.960Z,85.48
2017-09-23T07:01:41.043Z,85.77
2017-09-23T07:02:47.165Z,84.70
2017-09-23T07:03:54.172Z,85.50
2017-09-23T07:05:00.769Z,85.33
2017-09-23T07:06:07.312Z,85.74
2017-09-23T07:07:13.719Z,85.97
2017-09-23T07:08:20.883Z,85.72
2017-09-23T07:09:27.195Z,85.58
2017-09-23T07:10:33.329Z,85.83
2017-09-23T07:11:39.519Z,85.75
2017-09-23T07:12:46.754Z,85.59
2017-09-23T07:13:52.823Z,85.36
2017-09-23T07:14:59.315Z,85.36
2017-09-23T07:16:05.644Z,85.50
2017-09-23T07:17:13.059Z,85.15
2017-09-23T07:18:19.902Z,84.93
2017-09-23T07:19:26.939Z,83.19
2017-09-23T07:20:33.017Z,82.98
2017-09-23T07:21:42.335Z,83.18
2017-09-23T07:22:55.367Z,83.53
2017-09-23T07:24:09.339Z,84.23
2017-09-23T07:25:21.154Z,84.68
2017-09-23T07:26:27.573Z,84.53
2017-09-23T07:27:33.929Z,83.07
2017-09-23T07:28:41.322Z,83.48
2017-09-23T07:29:47.877Z,83.36
2017-09-23T07:30:53.975Z,82.07
2017-09-23T07:32:00.002Z,81.70
2017-09-23T07:33:06.087Z,81.87
2017-09-23T07:34:13.658Z,82.37
2017-09-23T07:35:20.599Z,82.61
2017-09-23T07:36:26.802Z,82.55
2017-09-23T07:37:33.098Z,82.94
2017-09-23T07:38:39.317Z,82.27
2017-09-23T07:39:45.312Z,82.52
2017-09-23T07:40:51.420Z,83.45
2017-09-23T07:41:58.139Z,83.16
2017-09-23T07:43:04.296Z,84.73
2017-09-23T07:44:11.705Z,85.38
2017-09-23T07:45:17.787Z,83.85
2017-09-23T07:46:24.690Z,83.83
2017-09-23T07:47:30.789Z,85.14
2017-09-23T07:48:36.918Z,84.90
2017-09-23T07:49:43.109Z,83.94
2017-09-23T07:50:50.036Z,83.15
2017-09-23T07:51:56.124Z,82.92
2017-09-23T07:53:02.584Z,83.03
2017-09-23T07:54:09.211Z,83.23
2017-09-23T07:55:15.355Z,83.58
2017-09-23T07:56:21.565Z,82.56
2017-09-23T07:57:27.510Z,83.11
2017-09-23T07:58:33.725Z,82.55
2017-09-23T07:59:39.910Z,82.98
2017-09-23T08:00:46.043Z,83.07
2017-09-23T08:01:55.279Z,83.74
2017-09-23T08:03:01.503Z,83.06
2017-09-23T08:04:07.910Z,82.87
2017-09-23T08:05:14.505Z,83.26
2017-09-23T08:06:21.551Z,83.20
2017-09-23T08:07:28.782Z,82.62
2017-09-23T08:08:35.457Z,81.10
2017-09-23T08:09:42.380Z,82.38
2017-09-23T08:10:49.456Z,80.85
2017-09-23T08:11:57.792Z,80.33
2017-09-23T08:13:06.642Z,79.94
2017-09-23T08:14:13.973Z,79.43
2017-09-23T08:15:21.652Z,78.39
2017-09-23T08:16:28.597Z,78.32
2017-09-23T08:17:36.469Z,77.53
2017-09-23T08:18:45.456Z,78.36
2017-09-23T08:19:55.616Z,78.25
2017-09-23T08:21:04.102Z,78.49
2017-09-23T08:22:12.182Z,78.98
2017-09-23T08:23:21.002Z,80.44
2017-09-23T08:24:29.322Z,78.75
2017-09-23T08:25:38.689Z,79.10
2017-09-23T08:26:47.950Z,80.38
2017-09-23T08:27:56.428Z,80.38
2017-09-23T08:29:04.602Z,79.22
2017-09-23T08:30:13.365Z,79.21
2017-09-23T08:31:21.596Z,79.48
2017-09-23T08:32:27.740Z,79.67
2017-09-23T08:33:34.412Z,78.67
2017-09-23T08:34:40.853Z,78.70
2017-09-23T08:35:47.942Z,77.15
2017-09-23T08:36:54.801Z,75.90
2017-09-23T08:38:02.456Z,76.76
2017-09-23T08:39:11.872Z,77.30
2017-09-23T08:40:18.671Z,77.26
2017-09-23T08:41:25.242Z,77.01
2017-09-23T08:42:31.742Z,78.04
2017-09-23T08:43:39.175Z,79.21
2017-09-23T08:44:45.434Z,77.67
2017-09-23T08:45:52.430Z,77.13
2017-09-23T08:46:59.925Z,77.04
2017-09-23T08:48:08.739Z,77.06
2017-09-23T08:49:15.573Z,76.79
2017-09-23T08:50:21.674Z,77.70
2017-09-23T08:51:28.165Z,78.45
2017-09-23T08:52:35.458Z,77.47
2017-09-23T08:53:42.024Z,76.80
2017-09-23T08:54:49.381Z,76.84
2017-09-23T08:55:56.003Z,77.33
2017-09-23T08:57:04.918Z,78.09
2017-09-23T08:58:11.966Z,77.09
2017-09-23T08:59:18.123Z,75.32
2017-09-23T09:00:24.829Z,75.28
2017-09-23T09:01:32.366Z,75.97
2017-09-23T09:02:38.466Z,74.84
2017-09-23T09:03:44.637Z,74.97
2017-09-23T09:04:53.527Z,76.17
2017-09-23T09:06:00.252Z,75.39
2017-09-23T09:07:06.511Z,75.48
2017-09-23T09:08:13.234Z,74.61
2017-09-23T09:09:19.328Z,75.92
2017-09-23T09:10:26.407Z,76.72
2017-09-23T09:11:33.703Z,75.12
2017-09-23T09:12:44.463Z,74.41
2017-09-23T09:13:51.259Z,75.19
2017-09-23T09:14:57.622Z,74.83
2017-09-23T09:16:04.959Z,73.34
2017-09-23T09:17:11.729Z,72.59
2017-09-23T09:18:21.794Z,73.89
2017-09-23T09:19:28.571Z,74.74
2017-09-23T09:20:35.043Z,74.49
2017-09-23T09:21:41.890Z,73.44
2017-09-23T09:22:48.563Z,74.05
2017-09-23T09:23:55.184Z,71.84
2017-09-23T09:25:01.767Z,72.63
2017-09-23T09:26:09.347Z,72.55
2017-09-23T09:27:17.112Z,73.00
2017-09-23T09:28:25.672Z,73.07
2017-09-23T09:29:32.090Z,72.19
2017-09-23T09:30:39.910Z,71.58
2017-09-23T09:31:46.527Z,72.62
2017-09-23T09:32:52.682Z,71.33
2017-09-23T09:33:59.179Z,72.27
2017-09-23T09:35:05.465Z,71.40
2017-09-23T09:36:11.778Z,70.52
2017-09-23T09:37:19.379Z,72.86
2017-09-23T09:38:26.295Z,70.66
2017-09-23T09:39:32.378Z,70.58
2017-09-23T09:40:38.942Z,71.44
2017-09-23T09:41:45.149Z,71.87
2017-09-23T09:42:52.671Z,70.79
2017-09-23T09:44:00.652Z,70.99
2017-09-23T09:45:07.340Z,69.84
2017-09-23T09:46:13.765Z,71.38
2017-09-23T09:47:19.986Z,69.92
2017-09-23T09:48:26.911Z,71.46
2017-09-23T09:49:34.184Z,67.99
2017-09-23T09:50:42.147Z,68.03
2017-09-23T09:51:50.157Z,68.51
2017-09-23T09:52:57.704Z,68.64
2017-09-23T09:54:04.969Z,67.43
2017-09-23T09:55:12.038Z,68.89
2017-09-23T09:56:18.719Z,67.79
2017-09-23T09:57:27.966Z,68.19
2017-09-23T09:58:35.621Z,68.75
2017-09-23T09:59:42.967Z,67.97
2017-09-23T10:00:50.534Z,65.98
2017-09-23T10:02:00.609Z,66.15
2017-09-23T10:03:06.889Z,65.70
2017-09-23T10:04:14.264Z,65.74
2017-09-23T10:05:21.787Z,66.03
2017-09-23T10:06:28.592Z,65.61
2017-09-23T10:07:36.441Z,65.29
2017-09-23T10:08:44.172Z,64.94
2017-09-23T10:09:52.421Z,65.65
2017-09-23T10:10:59.516Z,63.23
2017-09-23T10:12:08.538Z,63.78
2017-09-23T10:13:17.483Z,63.23
2017-09-23T10:14:24.725Z,63.55
2017-09-23T10:15:32.967Z,62.68
2017-09-23T10:16:40.201Z,63.57
2017-09-23T10:17:46.791Z,64.38
2017-09-23T10:18:53.916Z,64.27
2017-09-23T10:20:02.747Z,65.03
2017-09-23T10:21:10.636Z,66.32
2017-09-23T10:22:17.870Z,65.45
2017-09-23T10:23:25.458Z,66.01
2017-09-23T10:24:32.431Z,63.86
2017-09-23T10:25:39.467Z,65.35
2017-09-23T10:26:46.787Z,63.82
2017-09-23T10:27:54.125Z,63.13
2017-09-23T10:29:02.785Z,63.21
2017-09-23T10:30:10.392Z,64.04
2017-09-23T10:31:20.114Z,63.32
2017-09-23T10:32:27.942Z,62.93
2017-09-23T10:33:36.749Z,64.15
2017-09-23T10:34:45.310Z,62.79
2017-09-23T10:35:51.377Z,61.52
2017-09-23T10:36:57.572Z,62.33
2017-09-23T10:38:03.894Z,61.65
2017-09-23T10:39:10.311Z,62.90
2017-09-23T10:40:16.510Z,61.52
2017-09-23T10:41:22.724Z,62.65
2017-09-23T10:42:30.209Z,63.60
2017-09-23T10:43:38.522Z,61.91
2017-09-23T10:44:45.300Z,63.94
2017-09-23T10:45:51.555Z,63.12
2017-09-23T10:47:01.642Z,62.56
2017-09-23T10:48:08.937Z,62.60
2017-09-23T10:49:16.307Z,61.77
2017-09-23T10:50:24.579Z,63.78
2017-09-23T10:51:31.610Z,61.79
2017-09-23T10:52:39.392Z,60.23
2017-09-23T10:53:46.768Z,61.52
2017-09-23T10:54:55.321Z,62.27
2017-09-23T10:56:03.686Z,61.82
2017-09-23T10:57:11.169Z,61.25
2017-09-23T10:58:18.873Z,60.17
2017-09-23T10:59:27.189Z,62.62
2017-09-23T11:00:35.487Z,59.71
2017-09-23T11:01:43.077Z,60.05
2017-09-23T11:02:51.200Z,60.47
2017-09-23T11:03:59.756Z,60.60
2017-09-23T11:05:06.852Z,60.86
2017-09-23T11:06:16.232Z,59.71
2017-09-23T11:07:23.697Z,60.25
2017-09-23T11:08:31.113Z,59.91
2017-09-23T11:09:40.100Z,60.74
2017-09-23T11:10:47.101Z,60.93
2017-09-23T11:11:55.012Z,59.07
2017-09-23T11:13:04.175Z,60.44
2017-09-23T11:14:10.727Z,60.18
2017-09-23T11:15:16.856Z,60.37
2017-09-23T11:16:24.753Z,59.98
2017-09-23T11:17:33.808Z,59.30
2017-09-23T11:18:40.604Z,60.10
2017-09-23T11:19:48.125Z,59.57
2017-09-23T11:20:55.066Z,60.68
2017-09-23T11:22:02.347Z,59.61
2017-09-23T11:23:08.473Z,58.22
2017-09-23T11:24:14.732Z,59.04
2017-09-23T11:25:22.842Z,58.96
2017-09-23T11:26:30.713Z,58.93
2017-09-23T11:27:37.334Z,59.96
2017-09-23T11:28:44.406Z,59.20
2017-09-23T11:29:50.992Z,57.93
2017-09-23T11:30:57.520Z,57.69
2017-09-23T11:32:05.129Z,57.91
2017-09-23T11:33:12.106Z,57.64
2017-09-23T11:34:19.867Z,57.70
2017-09-23T11:35:26.618Z,58.02
2017-09-23T11:36:33.749Z,58.21
2017-09-23T11:37:41.560Z,57.80
2017-09-23T11:38:48.601Z,58.87
2017-09-23T11:39:55.110Z,58.14
2017-09-23T11:41:02.265Z,58.13
2017-09-23T11:42:09.055Z,58.38
2017-09-23T11:43:16.406Z,57.95
2017-09-23T11:44:24.540Z,58.70
2017-09-23T11:45:31.948Z,57.86
2017-09-23T11:46:41.409Z,58.15
2017-09-23T11:47:49.120Z,57.57
2017-09-23T11:48:56.016Z,57.39
2017-09-23T11:50:02.525Z,58.10
2017-09-23T11:51:09.843Z,56.21
2017-09-23T11:52:16.424Z,55.06
2017-09-23T11:53:23.266Z,56.38
2017-09-23T11:54:30.986Z,57.73
2017-09-23T11:55:38.662Z,58.43
2017-09-23T11:56:46.715Z,56.48
2017-09-23T11:57:54.055Z,56.80
2017-09-23T11:59:00.769Z,55.79
2017-09-23T12:00:07.888Z,55.85
2017-09-23T12:01:14.765Z,56.05
2017-09-23T12:02:21.066Z,57.20
2017-09-23T12:03:27.810Z,57.43
2017-09-23T12:04:34.824Z,56.49
2017-09-23T12:05:43.145Z,57.34
2017-09-23T12:06:50.649Z,57.61
2017-09-23T12:07:58.496Z,56.55
2017-09-23T12:09:05.362Z,58.16
2017-09-23T12:10:12.694Z,57.37
2017-09-23T12:11:19.862Z,56.54
2017-09-23T12:12:27.575Z,57.19
2017-09-23T12:13:35.921Z,56.75
2017-09-23T12:14:45.401Z,57.40
2017-09-23T12:15:52.717Z,56.02
2017-09-23T12:17:00.273Z,58.09
2017-09-23T12:18:08.799Z,57.13
2017-09-23T12:19:16.282Z,57.10
2017-09-23T12:20:23.441Z,57.37
2017-09-23T12:21:30.665Z,56.61
2017-09-23T12:22:37.965Z,56.79
2017-09-23T12:23:45.532Z,56.53
2017-09-23T12:24:53.706Z,56.10
2017-09-23T12:26:01.946Z,55.38
2017-09-23T12:27:08.625Z,55.74
2017-09-23T12:28:14.900Z,56.26
2017-09-23T12:30:44.992Z,55.94
2017-09-23T12:31:52.720Z,54.58
2017-09-23T12:33:01.490Z,55.88
2017-09-23T12:34:10.316Z,55.34
2017-09-23T12:35:18.166Z,55.32
2017-09-23T12:36:25.819Z,56.03
2017-09-23T12:37:33.101Z,55.67
2017-09-23T12:38:40.936Z,54.59
2017-09-23T12:39:47.726Z,55.28
2017-09-23T12:40:54.734Z,55.55
2017-09-23T12:42:02.235Z,56.40
2017-09-23T12:43:09.745Z,54.82
2017-09-23T12:44:17.573Z,53.61
2017-09-23T12:45:25.372Z,53.77
2017-09-23T12:46:33.917Z,53.87
2017-09-23T12:47:40.894Z,54.31
2017-09-23T12:48:48.423Z,53.50
2017-09-23T12:49:55.912Z,54.08
2017-09-23T12:51:04.018Z,55.30
2017-09-23T12:52:12.631Z,54.28
2017-09-23T12:53:20.404Z,53.85
2017-09-23T12:54:27.806Z,52.33
2017-09-23T12:55:36.725Z,52.25
2017-09-23T12:56:43.352Z,52.61
2017-09-23T12:57:50.862Z,52.52
2017-09-23T12:58:58.010Z,52.84
2017-09-23T13:00:05.226Z,52.21
2017-09-23T13:01:12.488Z,52.74
2017-09-23T13:02:20.081Z,52.25
2017-09-23T13:03:29.281Z,53.12
2017-09-23T13:04:36.641Z,54.77
2017-09-23T13:05:44.107Z,51.94
2017-09-23T13:06:51.460Z,50.15
2017-09-23T13:07:58.550Z,51.86
2017-09-23T13:09:05.816Z,51.78
2017-09-23T13:10:14.018Z,51.70
2017-09-23T13:11:21.451Z,50.69
2017-09-23T13:12:28.794Z,51.38
2017-09-23T13:13:36.845Z,50.36
2017-09-23T13:14:45.089Z,51.05
2017-09-23T13:15:52.199Z,50.83
2017-09-23T13:16:58.918Z,50.57
2017-09-23T13:18:06.143Z,51.63
2017-09-23T13:19:16.227Z,50.86
2017-09-23T13:20:25.732Z,51.75
2017-09-23T13:21:37.316Z,50.16
2017-09-23T13:22:49.554Z,49.96
2017-09-23T13:23:57.507Z,49.75
2017-09-23T13:25:05.740Z,49.17
2017-09-23T13:26:13.004Z,54.14
2017-09-23T13:27:20.983Z,52.20
2017-09-23T13:28:29.348Z,51.44
2017-09-23T13:29:36.107Z,50.48
2017-09-23T13:30:43.271Z,49.90
2017-09-23T13:31:50.648Z,50.70
2017-09-23T13:32:58.109Z,51.37
2017-09-23T13:34:06.367Z,50.81
2017-09-23T13:35:13.705Z,50.88
2017-09-23T13:36:20.883Z,51.01
2017-09-23T13:37:28.025Z,51.18
2017-09-23T13:38:35.742Z,53.35
2017-09-23T13:39:44.090Z,54.21
2017-09-23T13:40:52.661Z,55.08
2017-09-23T13:41:59.935Z,56.29
2017-09-23T13:43:07.092Z,56.58
2017-09-23T13:44:14.349Z,55.24
2017-09-23T13:45:23.439Z,56.26
2017-09-23T13:46:31.612Z,57.10
2017-09-23T13:47:39.283Z,56.87
2017-09-23T13:48:49.474Z,56.85
2017-09-23T13:49:56.964Z,55.89
2017-09-23T13:51:03.647Z,55.42
2017-09-23T13:52:10.505Z,54.29
2017-09-23T13:53:17.768Z,54.62
2017-09-23T13:54:24.851Z,54.91
2017-09-23T13:55:32.126Z,54.76
2017-09-23T13:56:39.119Z,55.12
2017-09-23T13:57:47.469Z,54.99
2017-09-23T13:58:54.123Z,54.57
2017-09-23T14:00:01.474Z,55.09
2017-09-23T14:01:08.552Z,55.33
2017-09-23T14:02:15.289Z,55.28
2017-09-23T14:03:22.118Z,55.35
2017-09-23T14:04:30.334Z,55.90
2017-09-23T14:05:38.205Z,55.42
2017-09-23T14:06:44.298Z,55.60
2017-09-23T14:07:50.879Z,55.39
2017-09-23T14:08:59.647Z,54.42
2017-09-23T14:10:10.103Z,55.30
2017-09-23T14:11:17.950Z,54.31
2017-09-23T14:12:24.514Z,54.02
2017-09-23T14:13:31.615Z,53.34